Delta Virtual Airport Information Service

Punta Cana International Airport

ICAO: MDPC Country: Dominican Republic
Latitude: 18.5674 Longitude: -68.3634
Latest Arrival : DAL4962931 (TJSJ-MDPC) Latest Departure : DAL4962931 (MDPC-TNCA)


WX CaptureLIVE
Data provided by noaa.gov | Fetched at 09:01:28

METAR : MDPC 041400Z 12010KT 9999 FEW022 30/24 Q1018 NOSIG

TAF : MDPC 041000Z 0412/0512 13010KT 9999 SCT022 PROB30 0415/0418 8000 -SH FEW018CB BKN020


Runway Data for MDPC
Data provided by openaviationdata.com

Runway ID Mag Var Hdg Length Elevation Surface ILS Freq ILS Id ILS Slope
9 -12 96° 10171 ft 47 ft Asphalt -- -- --
27 -12 276° 10171 ft 47 ft Asphalt -- -- --

Punta Cana International Airport, Dominican Republic
Use only for reference purposes



Not for navigational purposes.